Time;durP1;ratioP1;P1;durP2;ratioP2;P2;SDS_P1;SDS_P2;PMS_P1;PMS_P2;Temp;Humidity;BMP_temperature;BMP_pressure;BME280_temperature;BME280_humidity;BME280_pressure;Samples;Min_cycle;Max_cycle;Signal;HPM_P1;HPM_P2
2022/06/16 00:00:11;;;;;;;;;12.25;11.00;;;;;-143.57;100.00;65101.44;5097446;27;45248;-56
2022/06/16 00:02:42;;;;;;;;;9.75;9.75;;;;;-143.57;100.00;65101.44;5097037;27;46431;-49
2022/06/16 00:05:10;;;;;;;;;11.50;9.50;;;;;-143.57;100.00;65101.44;5097099;27;45322;-52
2022/06/16 00:07:36;;;;;;;;;11.75;9.00;;;;;-143.57;100.00;65101.44;5097168;27;45477;-53
2022/06/16 00:10:02;;;;;;;;;10.50;10.00;;;;;-143.57;100.00;65101.44;5097331;27;45221;-46
2022/06/16 00:12:28;;;;;;;;;10.50;10.50;;;;;-143.57;100.00;65101.44;5096915;27;46918;-53
2022/06/16 00:14:54;;;;;;;;;9.00;6.75;;;;;-143.57;100.00;65101.44;5096829;27;45536;-46
2022/06/16 00:17:20;;;;;;;;;11.00;11.00;;;;;-143.57;100.00;65101.44;5096551;27;45355;-45
2022/06/16 00:19:45;;;;;;;;;12.67;12.67;;;;;-143.57;100.00;65101.44;5097013;27;45523;-55
2022/06/16 00:22:10;;;;;;;;;16.25;16.25;;;;;-143.57;100.00;65101.44;5097615;27;45452;-55
2022/06/16 00:24:36;;;;;;;;;12.75;12.00;;;;;-143.57;100.00;65101.44;5100314;27;45373;-54
2022/06/16 00:27:01;;;;;;;;;12.75;11.00;;;;;-143.57;100.00;65101.44;5100639;27;45317;-55
2022/06/16 00:29:27;;;;;;;;;13.75;11.25;;;;;-143.57;100.00;65101.44;5100197;27;45546;-53
2022/06/16 00:31:53;;;;;;;;;14.75;9.50;;;;;-143.57;100.00;65101.44;5099996;27;45501;-53
2022/06/16 00:34:19;;;;;;;;;10.50;9.00;;;;;-143.57;100.00;65101.44;5099921;27;45280;-51
2022/06/16 00:36:44;;;;;;;;;9.50;9.50;;;;;-143.57;100.00;65101.44;5100308;27;45280;-48
2022/06/16 00:39:10;;;;;;;;;11.50;10.50;;;;;-143.57;100.00;65101.44;5100512;27;45219;-45
2022/06/16 00:41:35;;;;;;;;;12.00;12.00;;;;;-143.57;100.00;65101.44;5099642;27;46208;-56
2022/06/16 00:44:02;;;;;;;;;12.00;11.00;;;;;-143.57;100.00;65101.44;5099919;27;45221;-44
2022/06/16 00:46:29;;;;;;;;;11.75;11.25;;;;;-143.57;100.00;65101.44;5099945;27;45385;-51
2022/06/16 00:49:11;;;;;;;;;14.25;10.25;;;;;-143.57;100.00;65101.44;5100118;27;45320;-55
2022/06/16 00:51:46;;;;;;;;;14.50;13.50;;;;;-143.57;100.00;65101.44;5099482;27;47197;-45
2022/06/16 00:54:23;;;;;;;;;12.00;11.00;;;;;-143.57;100.00;65101.44;5099890;27;45382;-49
2022/06/16 00:56:51;;;;;;;;;9.75;9.50;;;;;-143.57;100.00;65101.44;5100367;27;45469;-48
2022/06/16 00:59:19;;;;;;;;;16.75;12.25;;;;;-143.57;100.00;65101.44;5100117;27;45377;-54
2022/06/16 01:01:46;;;;;;;;;14.25;12.75;;;;;-143.57;100.00;65101.44;5099494;27;45309;-52
2022/06/16 01:06:58;;;;;;;;;10.75;10.00;;;;;-143.57;100.00;65101.44;5099834;27;45208;-48
2022/06/16 01:09:28;;;;;;;;;15.00;11.50;;;;;-143.57;100.00;65101.44;5099726;27;45373;-47
2022/06/16 01:15:02;;;;;;;;;13.75;11.00;;;;;-143.57;100.00;65101.44;5099156;27;45499;-50
2022/06/16 01:18:02;;;;;;;;;14.25;13.50;;;;;-143.57;100.00;65101.44;5099678;27;45344;-48
2022/06/16 01:20:51;;;;;;;;;15.25;13.25;;;;;-143.57;100.00;65101.44;5099404;27;45310;-45
2022/06/16 01:23:37;;;;;;;;;13.00;11.00;;;;;-143.57;100.00;65101.44;5099048;27;45326;-49
2022/06/16 01:26:44;;;;;;;;;12.50;12.50;;;;;-143.57;100.00;65101.44;5097772;27;45262;-53
2022/06/16 01:29:43;;;;;;;;;13.00;13.00;;;;;-143.57;100.00;65101.44;5098714;27;45316;-45
2022/06/16 01:32:32;;;;;;;;;12.75;11.75;;;;;-143.57;100.00;65101.44;5099226;27;45498;-48
2022/06/16 01:35:11;;;;;;;;;12.75;11.00;;;;;-143.57;100.00;65101.44;5098001;27;45443;-46
2022/06/16 01:38:01;;;;;;;;;14.00;12.50;;;;;-143.57;100.00;65101.44;5098984;27;45302;-52
2022/06/16 01:40:35;;;;;;;;;11.50;11.00;;;;;-143.57;100.00;65101.44;5099000;27;45297;-52
2022/06/16 01:43:10;;;;;;;;;14.00;10.75;;;;;-143.57;100.00;65101.44;5099122;27;45460;-52
2022/06/16 01:45:53;;;;;;;;;15.50;12.25;;;;;-143.57;100.00;65101.44;5098612;27;46278;-51
2022/06/16 01:48:20;;;;;;;;;12.00;12.00;;;;;-143.57;100.00;65101.44;5098826;27;45317;-45
2022/06/16 01:50:56;;;;;;;;;15.75;13.00;;;;;-143.57;100.00;65101.44;5099130;27;45247;-54
2022/06/16 01:53:43;;;;;;;;;14.50;13.50;;;;;-143.57;100.00;65101.44;5099047;27;45425;-54
2022/06/16 01:56:22;;;;;;;;;13.00;13.00;;;;;-143.57;100.00;65101.44;5098647;27;46606;-54
2022/06/16 01:59:20;;;;;;;;;13.75;13.75;;;;;-143.57;100.00;65101.44;5098688;27;45546;-54
2022/06/16 02:01:50;;;;;;;;;13.00;11.25;;;;;-143.57;100.00;65101.44;5055950;28;45359;-53
2022/06/16 02:04:25;;;;;;;;;14.25;13.75;;;;;-143.57;100.00;65101.44;5056868;28;45351;-49
2022/06/16 02:06:54;;;;;;;;;12.00;12.00;;;;;-143.57;100.00;65101.44;5056573;28;45477;-58
2022/06/16 02:09:27;;;;;;;;;18.50;15.00;;;;;-143.57;100.00;65101.44;5055739;28;45286;-60
2022/06/16 02:11:57;;;;;;;;;14.25;13.50;;;;;-143.57;100.00;65101.44;5055649;28;45511;-55
2022/06/16 02:14:31;;;;;;;;;13.25;13.25;;;;;-143.57;100.00;65101.44;5056092;28;45530;-56
2022/06/16 02:16:57;;;;;;;;;11.50;11.25;;;;;-143.57;100.00;65101.44;5055281;28;45537;-56
2022/06/16 02:19:25;;;;;;;;;17.50;13.50;;;;;-143.57;100.00;65101.44;5055488;28;45378;-57
2022/06/16 02:21:53;;;;;;;;;13.25;13.25;;;;;-143.57;100.00;65101.44;5055420;28;45454;-55
2022/06/16 02:24:27;;;;;;;;;15.50;13.00;;;;;-143.57;100.00;65101.44;5055925;28;45890;-49
2022/06/16 02:26:56;;;;;;;;;14.00;12.50;;;;;-143.57;100.00;65101.44;5055508;28;46414;-56
2022/06/16 02:29:26;;;;;;;;;16.50;11.50;;;;;-143.57;100.00;65101.44;5055330;28;45392;-57
2022/06/16 02:32:12;;;;;;;;;6.75;6.75;;;;;-143.57;100.00;65101.44;5055485;28;45554;-51
2022/06/16 02:34:50;;;;;;;;;13.33;13.00;;;;;-143.57;100.00;65101.44;5055546;28;45416;-57
2022/06/16 02:37:31;;;;;;;;;18.00;16.00;;;;;-143.57;100.00;65101.44;5055046;28;46163;-60
2022/06/16 02:40:04;;;;;;;;;22.50;11.00;;;;;-143.57;100.00;65101.44;5063289;27;45407;-56
2022/06/16 02:42:43;;;;;;;;;14.00;14.00;;;;;-143.57;100.00;65101.44;5098186;27;45461;-56
2022/06/16 02:45:19;;;;;;;;;17.67;15.00;;;;;-143.57;100.00;65101.44;5097763;27;45413;-51
2022/06/16 02:48:02;;;;;;;;;17.75;14.50;;;;;-143.57;100.00;65101.44;5097824;27;46094;-48
2022/06/16 02:50:33;;;;;;;;;14.00;13.33;;;;;-143.57;100.00;65101.44;5096579;27;45500;-52
2022/06/16 02:53:17;;;;;;;;;17.00;14.67;;;;;-143.57;100.00;65101.44;5097961;27;45351;-54
2022/06/16 02:55:47;;;;;;;;;14.00;12.25;;;;;-143.57;100.00;65101.44;5098089;27;45350;-56
2022/06/16 02:58:17;;;;;;;;;15.67;13.67;;;;;-143.57;100.00;65101.44;5097800;27;46373;-52
2022/06/16 03:00:46;;;;;;;;;17.33;15.00;;;;;-143.57;100.00;65101.44;5097713;27;45512;-52
2022/06/16 03:03:30;;;;;;;;;14.67;12.67;;;;;-143.57;100.00;65101.44;5097728;27;45299;-57
2022/06/16 03:05:57;;;;;;;;;17.33;15.00;;;;;-143.57;100.00;65101.44;5097868;27;45462;-54
2022/06/16 03:08:25;;;;;;;;;18.33;17.00;;;;;-143.57;100.00;65101.44;5097663;27;46095;-57
2022/06/16 03:10:51;;;;;;;;;18.33;16.67;;;;;-143.57;100.00;65101.44;5097608;27;45378;-56
2022/06/16 03:13:27;;;;;;;;;12.75;12.75;;;;;-143.57;100.00;65101.44;5097754;27;45292;-52
2022/06/16 03:15:54;;;;;;;;;18.00;16.00;;;;;-143.57;100.00;65101.44;5098019;27;45275;-55
2022/06/16 03:18:20;;;;;;;;;17.00;15.67;;;;;-143.57;100.00;65101.44;5097267;27;46392;-58
2022/06/16 03:20:47;;;;;;;;;18.00;15.33;;;;;-143.57;100.00;65101.44;5097247;27;45436;-55
2022/06/16 03:23:13;;;;;;;;;18.33;14.33;;;;;-143.57;100.00;65101.44;5097777;27;45365;-57
2022/06/16 03:25:38;;;;;;;;;15.00;15.00;;;;;-143.57;100.00;65101.44;5097738;27;45504;-54
2022/06/16 03:28:04;;;;;;;;;15.67;15.67;;;;;-143.57;100.00;65101.44;5097436;27;46189;-57
2022/06/16 03:30:30;;;;;;;;;19.67;18.00;;;;;-143.57;100.00;65101.44;5097480;27;45334;-56
2022/06/16 03:32:55;;;;;;;;;15.33;15.00;;;;;-143.57;100.00;65101.44;5097528;27;45323;-55
2022/06/16 03:35:20;;;;;;;;;17.00;14.00;;;;;-143.57;100.00;65101.44;5097678;27;45305;-45
2022/06/16 03:37:46;;;;;;;;;19.67;18.00;;;;;-143.57;100.00;65101.44;5095966;27;46175;-56
2022/06/16 03:40:13;;;;;;;;;16.33;15.33;;;;;-143.57;100.00;65101.44;5097508;27;45313;-57
2022/06/16 03:42:39;;;;;;;;;18.33;13.00;;;;;-143.57;100.00;65101.44;5097543;27;45464;-52
2022/06/16 03:45:04;;;;;;;;;14.67;13.00;;;;;-143.57;100.00;65101.44;5097801;27;45349;-58
2022/06/16 03:47:30;;;;;;;;;16.33;16.33;;;;;-143.57;100.00;65101.44;5096693;27;45434;-53
2022/06/16 03:49:55;;;;;;;;;17.00;15.67;;;;;-143.57;100.00;65101.44;5097360;27;45513;-52
2022/06/16 03:52:21;;;;;;;;;17.00;15.67;;;;;-143.57;100.00;65101.44;5097434;27;45787;-56
2022/06/16 03:54:46;;;;;;;;;19.33;15.33;;;;;-143.57;100.00;65101.44;5097678;27;45303;-50
2022/06/16 03:57:11;;;;;;;;;14.00;14.00;;;;;-143.57;100.00;65101.44;5097735;27;46594;-49
2022/06/16 03:59:37;;;;;;;;;14.67;14.67;;;;;-143.57;100.00;65101.44;5101065;27;45325;-56
2022/06/16 04:02:02;;;;;;;;;18.00;16.67;;;;;-143.57;100.00;65101.44;5100828;27;45339;-53
2022/06/16 04:04:28;;;;;;;;;18.00;15.33;;;;;-143.57;100.00;65101.44;5101075;27;45384;-55
2022/06/16 04:06:54;;;;;;;;;19.67;16.00;;;;;-143.57;100.00;65101.44;5100631;27;46346;-57
2022/06/16 04:09:19;;;;;;;;;16.00;15.33;;;;;-143.57;100.00;65101.44;5100757;27;45172;-57
2022/06/16 04:11:44;;;;;;;;;17.00;16.00;;;;;-143.57;100.00;65101.44;5100876;27;45413;-55
2022/06/16 04:14:12;;;;;;;;;17.67;15.00;;;;;-143.57;100.00;65101.44;5100817;27;45526;-57
2022/06/16 04:16:40;;;;;;;;;17.33;13.33;;;;;-143.57;100.00;65101.44;5100484;27;45881;-56
2022/06/16 04:19:07;;;;;;;;;17.00;17.00;;;;;-143.57;100.00;65101.44;5100288;27;45364;-56
2022/06/16 04:21:36;;;;;;;;;15.67;15.00;;;;;-143.57;100.00;65101.44;5100307;27;45482;-57
2022/06/16 04:24:01;;;;;;;;;18.67;15.67;;;;;-143.57;100.00;65101.44;5100681;27;45324;-56
2022/06/16 04:26:28;;;;;;;;;19.00;16.67;;;;;-143.57;100.00;65101.44;5100137;27;45238;-58
2022/06/16 04:28:53;;;;;;;;;21.33;17.00;;;;;-143.57;100.00;65101.44;5100368;27;45309;-52
2022/06/16 04:31:18;;;;;;;;;16.00;15.67;;;;;-143.57;100.00;65101.44;5100445;27;45556;-57
2022/06/16 04:33:44;;;;;;;;;16.33;15.67;;;;;-143.57;100.00;65101.44;5100404;27;45432;-58
2022/06/16 04:36:11;;;;;;;;;16.00;13.33;;;;;-143.57;100.00;65101.44;5100443;27;47398;-53
2022/06/16 04:38:36;;;;;;;;;15.67;15.67;;;;;-143.57;100.00;65101.44;5100165;27;45370;-57
2022/06/16 04:41:01;;;;;;;;;18.33;16.67;;;;;-143.57;100.00;65101.44;5100542;27;45313;-54
2022/06/16 04:43:28;;;;;;;;;23.00;16.00;;;;;-143.57;100.00;65101.44;5100364;27;45400;-57
2022/06/16 04:45:55;;;;;;;;;18.67;16.00;;;;;-143.57;100.00;65101.44;5099997;27;45406;-57
2022/06/16 04:48:20;;;;;;;;;17.00;15.00;;;;;-143.57;100.00;65101.44;5099552;27;45393;-56
2022/06/16 04:50:45;;;;;;;;;16.67;15.33;;;;;-143.57;100.00;65101.44;5099843;27;45266;-55
2022/06/16 04:53:11;;;;;;;;;18.67;18.33;;;;;-143.57;100.00;65101.44;5100148;27;45239;-57
2022/06/16 04:55:36;;;;;;;;;16.00;13.00;;;;;-143.57;100.00;65101.44;5099924;27;46128;-55
2022/06/16 04:58:03;;;;;;;;;18.67;17.00;;;;;-143.57;100.00;65101.44;5099838;27;45362;-56
2022/06/16 05:00:28;;;;;;;;;18.67;16.33;;;;;-143.57;100.00;65101.44;5100016;27;45378;-55
2022/06/16 05:02:54;;;;;;;;;21.67;18.67;;;;;-143.57;100.00;65101.44;5099647;27;45394;-57
2022/06/16 05:05:19;;;;;;;;;16.33;15.33;;;;;-143.57;100.00;65101.44;5099687;27;45344;-57
2022/06/16 05:07:44;;;;;;;;;16.00;15.67;;;;;-143.57;100.00;65101.44;5099627;27;45305;-56
2022/06/16 05:10:11;;;;;;;;;20.00;18.67;;;;;-143.57;100.00;65101.44;5100071;27;45380;-57
2022/06/16 05:12:37;;;;;;;;;13.67;13.67;;;;;-143.57;100.00;65101.44;5099910;27;45459;-54
2022/06/16 05:15:06;;;;;;;;;18.00;18.00;;;;;-143.57;100.00;65101.44;5099321;27;45396;-57
2022/06/16 05:17:31;;;;;;;;;16.75;16.50;;;;;-143.57;100.00;65101.44;5098222;27;45335;-56
2022/06/16 05:19:57;;;;;;;;;19.33;17.67;;;;;-143.57;100.00;65101.44;5099537;27;45385;-56
2022/06/16 05:22:23;;;;;;;;;16.33;15.33;;;;;-143.57;100.00;65101.44;5099926;27;45408;-54
2022/06/16 05:24:49;;;;;;;;;18.00;14.67;;;;;-143.57;100.00;65101.44;5099418;27;46859;-56
2022/06/16 05:27:15;;;;;;;;;19.33;16.67;;;;;-143.57;100.00;65101.44;5099423;27;45339;-53
2022/06/16 05:29:41;;;;;;;;;19.67;19.67;;;;;-143.57;100.00;65101.44;5100052;27;45403;-53
2022/06/16 05:32:09;;;;;;;;;16.00;14.33;;;;;-143.57;100.00;65101.44;5099806;27;45334;-54
2022/06/16 05:34:36;;;;;;;;;19.00;17.00;;;;;-143.57;100.00;65101.44;5099056;27;47572;-56
2022/06/16 05:37:01;;;;;;;;;18.67;18.00;;;;;-143.57;100.00;65101.44;5098414;27;45417;-56
2022/06/16 05:39:26;;;;;;;;;19.33;14.33;;;;;-143.57;100.00;65101.44;5099470;27;45528;-55
2022/06/16 05:41:52;;;;;;;;;21.00;18.00;;;;;-143.57;100.00;65101.44;5099634;27;45392;-57
2022/06/16 05:44:17;;;;;;;;;18.67;17.00;;;;;-143.57;100.00;65101.44;5099444;27;45242;-52
2022/06/16 05:46:43;;;;;;;;;16.00;16.00;;;;;-143.57;100.00;65101.44;5099183;27;45168;-49
2022/06/16 05:49:12;;;;;;;;;20.33;19.00;;;;;-143.57;100.00;65101.44;5099164;27;45194;-50
2022/06/16 05:51:37;;;;;;;;;20.33;17.00;;;;;-143.57;100.00;65101.44;5099243;27;45313;-58
2022/06/16 05:54:03;;;;;;;;;20.33;18.00;;;;;-143.57;100.00;65101.44;5098870;27;45546;-56
2022/06/16 05:56:28;;;;;;;;;21.00;16.00;;;;;-143.57;100.00;65101.44;5099055;27;45264;-56
2022/06/16 05:58:54;;;;;;;;;17.00;17.00;;;;;-143.57;100.00;65101.44;5098790;27;45360;-54
2022/06/16 06:01:19;;;;;;;;;21.67;18.33;;;;;-143.57;100.00;65101.44;5099226;27;45218;-49
2022/06/16 06:03:45;;;;;;;;;21.67;18.33;;;;;-143.57;100.00;65101.44;5098634;27;45339;-45
2022/06/16 06:06:11;;;;;;;;;25.00;19.67;;;;;-143.57;100.00;65101.44;5098796;27;45373;-52
2022/06/16 06:17:08;;;;;;;;;22.00;18.67;;;;;-143.57;100.00;65101.44;5098621;27;45427;-55
2022/06/16 06:19:34;;;;;;;;;16.67;14.33;;;;;-143.57;100.00;65101.44;5097634;27;45378;-53
2022/06/16 06:22:13;;;;;;;;;19.00;17.00;;;;;-143.57;100.00;65101.44;5098427;27;45266;-56
2022/06/16 06:24:42;;;;;;;;;36.33;26.00;;;;;-143.57;100.00;65101.44;5098380;27;46970;-54
2022/06/16 06:27:26;;;;;;;;;17.67;14.33;;;;;-143.57;100.00;65101.44;5098411;27;45509;-56
2022/06/16 06:29:52;;;;;;;;;20.00;17.67;;;;;-143.57;100.00;65101.44;5098585;27;45325;-52
2022/06/16 06:32:19;;;;;;;;;20.67;17.33;;;;;-143.57;100.00;65101.44;5098522;27;45313;-52
2022/06/16 06:34:45;;;;;;;;;20.00;18.00;;;;;-143.57;100.00;65101.44;5098096;27;46281;-56
2022/06/16 06:37:13;;;;;;;;;24.00;17.67;;;;;-143.57;100.00;65101.44;5098241;27;45239;-49
2022/06/16 06:39:39;;;;;;;;;22.00;18.75;;;;;-143.57;100.00;65101.44;5098441;27;45405;-55
2022/06/16 06:42:04;;;;;;;;;20.50;16.00;;;;;-143.57;100.00;65101.44;5098284;27;45462;-48
2022/06/16 06:44:31;;;;;;;;;20.00;17.75;;;;;-143.57;100.00;65101.44;5097908;27;45366;-52
2022/06/16 06:46:57;;;;;;;;;23.00;17.75;;;;;-143.57;100.00;65101.44;5098064;27;45333;-50
2022/06/16 06:49:22;;;;;;;;;15.25;14.00;;;;;-143.57;100.00;65101.44;5097936;27;45473;-45
2022/06/16 06:51:48;;;;;;;;;18.00;17.25;;;;;-143.57;100.00;65101.44;5098324;27;45321;-49
2022/06/16 06:54:13;;;;;;;;;18.50;18.50;;;;;-143.57;100.00;65101.44;5097786;27;46076;-50
2022/06/16 06:56:39;;;;;;;;;19.75;16.75;;;;;-143.57;100.00;65101.44;5097765;27;45561;-55
2022/06/16 06:59:09;;;;;;;;;16.00;14.75;;;;;-143.57;100.00;65101.44;5098241;27;45333;-55
2022/06/16 07:01:35;;;;;;;;;17.40;17.20;;;;;-143.57;100.00;65101.44;5098010;27;45306;-52
2022/06/16 07:04:02;;;;;;;;;15.00;14.25;;;;;-143.57;100.00;65101.44;5097677;27;46229;-55
2022/06/16 07:06:28;;;;;;;;;19.60;13.60;;;;;-143.57;100.00;65101.44;5097731;27;45363;-54
2022/06/16 07:08:54;;;;;;;;;13.60;13.60;;;;;-143.57;100.00;65101.44;5095211;27;45517;-51
2022/06/16 07:11:19;;;;;;;;;16.00;13.00;;;;;-143.57;100.00;65101.44;5098020;27;45253;-47
2022/06/16 07:13:44;;;;;;;;;12.00;11.75;;;;;-143.57;100.00;65101.44;5079043;27;47895;-50
2022/06/16 07:16:11;;;;;;;;;12.00;11.00;;;;;-143.57;100.00;65101.44;5097159;27;45491;-51
2022/06/16 07:18:37;;;;;;;;;11.60;11.60;;;;;-143.57;100.00;65101.44;5095493;27;45828;-51
2022/06/16 07:21:04;;;;;;;;;10.60;10.60;;;;;-143.57;100.00;65101.44;5096974;27;45545;-49
2022/06/16 07:23:29;;;;;;;;;15.60;12.00;;;;;-143.57;100.00;65101.44;5096469;27;45301;-55
2022/06/16 07:25:55;;;;;;;;;12.00;10.25;;;;;-143.57;100.00;65101.44;5096420;27;45432;-54
2022/06/16 07:28:20;;;;;;;;;10.75;10.75;;;;;-143.57;100.00;65101.44;5094687;27;45925;-48
2022/06/16 07:30:47;;;;;;;;;9.25;8.00;;;;;-143.57;100.00;65101.44;5095223;27;45465;-56
2022/06/16 07:33:12;;;;;;;;;9.40;9.20;;;;;-143.57;100.00;65101.44;5098175;27;46235;-54
2022/06/16 07:35:41;;;;;;;;;13.25;11.50;;;;;-143.57;100.00;65101.44;5096902;27;45530;-56
2022/06/16 07:38:08;;;;;;;;;14.00;11.00;;;;;-143.57;100.00;65101.44;5098463;27;45375;-57
2022/06/16 07:40:33;;;;;;;;;12.20;11.60;;;;;-143.57;100.00;65101.44;5095991;27;45555;-56
2022/06/16 07:42:59;;;;;;;;;8.75;8.50;;;;;-143.57;100.00;65101.44;5079853;27;46812;-56
2022/06/16 07:45:26;;;;;;;;;13.00;10.00;;;;;-143.57;100.00;65101.44;5098144;27;45529;-56
2022/06/16 07:47:52;;;;;;;;;13.20;10.20;;;;;-143.57;100.00;65101.44;5096934;27;45394;-57
2022/06/16 07:50:18;;;;;;;;;8.00;8.00;;;;;-143.57;100.00;65101.44;5080036;27;46511;-56
2022/06/16 07:52:44;;;;;;;;;8.20;8.00;;;;;-143.57;100.00;65101.44;5097968;27;46187;-57
2022/06/16 07:55:10;;;;;;;;;11.25;8.25;;;;;-143.57;100.00;65101.44;5098324;27;45232;-53
2022/06/16 07:57:43;;;;;;;;;12.20;9.40;;;;;-143.57;100.00;65101.44;5097919;27;45247;-55
2022/06/16 08:00:13;;;;;;;;;8.40;8.40;;;;;-143.57;100.00;65101.44;5098134;27;45447;-53
2022/06/16 08:02:39;;;;;;;;;10.80;10.40;;;;;-143.57;100.00;65101.44;5097858;27;46271;-56
2022/06/16 08:05:06;;;;;;;;;9.80;9.60;;;;;-143.57;100.00;65101.44;5097379;27;45541;-52
2022/06/16 08:07:31;;;;;;;;;10.60;9.60;;;;;-143.57;100.00;65101.44;5097556;27;45427;-57
2022/06/16 08:09:57;;;;;;;;;8.25;8.25;;;;;-143.57;100.00;65101.44;5098230;27;45559;-55
2022/06/16 08:12:24;;;;;;;;;8.75;7.00;;;;;-143.57;100.00;65101.44;5097470;27;46420;-57
2022/06/16 08:14:50;;;;;;;;;12.00;7.60;;;;;-143.57;100.00;65101.44;5096175;27;45399;-56
2022/06/16 08:17:25;;;;;;;;;9.25;7.50;;;;;-143.57;100.00;65101.44;5097652;27;45457;-56
2022/06/16 08:19:51;;;;;;;;;5.40;5.40;;;;;-143.57;100.00;65101.44;5097616;27;46001;-56
2022/06/16 08:22:17;;;;;;;;;9.20;8.00;;;;;-143.57;100.00;65101.44;5097173;27;46492;-54
2022/06/16 08:24:42;;;;;;;;;8.00;7.75;;;;;-143.57;100.00;65101.44;5097551;27;45414;-53
2022/06/16 08:27:09;;;;;;;;;7.00;7.00;;;;;-143.57;100.00;65101.44;5097768;27;45873;-56
2022/06/16 08:29:37;;;;;;;;;8.20;7.80;;;;;-143.57;100.00;65101.44;5079419;27;46212;-55
2022/06/16 08:32:03;;;;;;;;;8.20;8.00;;;;;-143.57;100.00;65101.44;5096170;27;46607;-58
2022/06/16 08:34:28;;;;;;;;;10.25;8.25;;;;;-143.57;100.00;65101.44;5096994;27;45430;-57
2022/06/16 08:36:54;;;;;;;;;9.75;8.50;;;;;-143.57;100.00;65101.44;5097418;27;45513;-53
2022/06/16 08:39:19;;;;;;;;;8.00;8.00;;;;;-143.57;100.00;65101.44;5097546;27;45452;-49
2022/06/16 08:41:50;;;;;;;;;9.00;9.00;;;;;-143.57;100.00;65101.44;5096265;27;45465;-56
2022/06/16 08:44:25;;;;;;;;;9.20;8.20;;;;;-143.57;100.00;65101.44;5096466;27;45354;-56
2022/06/16 08:46:56;;;;;;;;;6.20;6.20;;;;;-143.57;100.00;65101.44;5097189;27;45681;-59
2022/06/16 08:49:30;;;;;;;;;7.60;6.80;;;;;-143.57;100.00;65101.44;5096206;27;45479;-48
2022/06/16 08:52:11;;;;;;;;;8.60;7.80;;;;;-143.57;100.00;65101.44;5097037;27;45481;-54
2022/06/16 08:54:55;;;;;;;;;6.00;6.00;;;;;-143.57;100.00;65101.44;5096816;27;45644;-56
2022/06/16 08:57:42;;;;;;;;;7.80;6.40;;;;;-143.57;100.00;65101.44;5097013;27;45918;-59
2022/06/16 09:00:28;;;;;;;;;8.20;8.20;;;;;-143.57;100.00;65101.44;5097092;27;45519;-56
2022/06/16 09:03:06;;;;;;;;;9.00;7.60;;;;;-143.57;100.00;65101.44;5096568;27;46336;-56
2022/06/16 09:05:31;;;;;;;;;4.00;2.60;;;;;-143.57;100.00;65101.44;5096671;27;46287;-56
2022/06/16 09:08:11;;;;;;;;;8.25;6.75;;;;;-143.57;100.00;65101.44;5098501;27;45247;-57
2022/06/16 09:10:50;;;;;;;;;6.60;6.60;;;;;-143.57;100.00;65101.44;5097196;27;45489;-55
2022/06/16 09:13:40;;;;;;;;;5.60;5.60;;;;;-143.57;100.00;65101.44;5096437;27;47052;-57
2022/06/16 09:16:11;;;;;;;;;6.60;5.80;;;;;-143.57;100.00;65101.44;5012589;28;45462;-53
2022/06/16 09:18:49;;;;;;;;;7.80;7.20;;;;;-143.57;100.00;65101.44;5013300;28;45446;-54
2022/06/16 09:21:52;;;;;;;;;7.20;5.60;;;;;-143.57;100.00;65101.44;5013366;28;45595;-50
2022/06/16 09:24:36;;;;;;;;;6.40;4.00;;;;;-143.57;100.00;65101.44;5013301;28;46247;-56
2022/06/16 09:27:11;;;;;;;;;6.40;6.40;;;;;-143.57;100.00;65101.44;5011116;28;45446;-52
2022/06/16 09:29:42;;;;;;;;;4.80;4.80;;;;;-143.57;100.00;65101.44;5013263;28;45456;-56
2022/06/16 09:32:23;;;;;;;;;5.20;5.20;;;;;-143.57;100.00;65101.44;5013964;28;45434;-57
2022/06/16 09:34:58;;;;;;;;;6.80;5.00;;;;;-143.57;100.00;65101.44;5013381;28;46217;-50
2022/06/16 09:37:42;;;;;;;;;5.40;5.00;;;;;-143.57;100.00;65101.44;5013269;28;45414;-49
2022/06/16 09:40:11;;;;;;;;;5.20;5.20;;;;;-143.57;100.00;65101.44;5013341;28;45562;-50
2022/06/16 09:42:44;;;;;;;;;5.00;5.00;;;;;-143.57;100.00;65101.44;5013250;28;45535;-48
2022/06/16 09:45:17;;;;;;;;;7.80;7.20;;;;;-143.57;100.00;65101.44;5013217;28;45550;-51
2022/06/16 09:48:04;;;;;;;;;7.00;7.00;;;;;-143.57;100.00;65101.44;5013094;28;45421;-48
2022/06/16 09:50:40;;;;;;;;;7.00;4.60;;;;;-143.57;100.00;65101.44;5012859;28;45535;-55
2022/06/16 09:53:17;;;;;;;;;7.60;6.60;;;;;-143.57;100.00;65101.44;5053646;27;45564;-53
2022/06/16 09:55:46;;;;;;;;;6.80;5.20;;;;;-143.57;100.00;65101.44;5093315;27;45536;-57
2022/06/16 09:58:41;;;;;;;;;7.80;6.40;;;;;-143.57;100.00;65101.44;5095303;27;45435;-49
2022/06/16 10:01:10;;;;;;;;;7.20;6.00;;;;;-143.57;100.00;65101.44;5095616;27;45443;-52
2022/06/16 10:03:42;;;;;;;;;6.80;5.60;;;;;-143.57;100.00;65101.44;5095049;27;45656;-50
2022/06/16 10:06:30;;;;;;;;;6.80;6.80;;;;;-143.57;100.00;65101.44;5095465;27;45955;-57
2022/06/16 10:08:58;;;;;;;;;8.40;7.20;;;;;-143.57;100.00;65101.44;5095667;27;45428;-51
2022/06/16 10:11:35;;;;;;;;;6.60;6.60;;;;;-143.57;100.00;65101.44;5096151;27;45505;-56
2022/06/16 10:14:22;;;;;;;;;9.20;7.20;;;;;-143.57;100.00;65101.44;5096099;27;45426;-49
2022/06/16 10:16:56;;;;;;;;;6.40;6.40;;;;;-143.57;100.00;65101.44;5095720;27;45371;-48
2022/06/16 10:19:23;;;;;;;;;8.20;6.80;;;;;-143.57;100.00;65101.44;5095126;27;45482;-49
2022/06/16 10:21:49;;;;;;;;;8.20;7.80;;;;;-143.57;100.00;65101.44;5095078;27;45430;-46
2022/06/16 10:24:17;;;;;;;;;6.75;5.75;;;;;-143.57;100.00;65101.44;5096049;27;45488;-48
2022/06/16 10:26:43;;;;;;;;;3.80;2.20;;;;;-143.57;100.00;65101.44;5095574;27;45506;-49
2022/06/16 10:29:27;;;;;;;;;4.50;4.50;;;;;-143.57;100.00;65101.44;5095226;27;45438;-57
2022/06/16 10:31:56;;;;;;;;;8.20;6.80;;;;;-143.57;100.00;65101.44;5094666;27;45446;-49
2022/06/16 10:34:30;;;;;;;;;5.20;5.20;;;;;-143.57;100.00;65101.44;5095503;27;45466;-48
2022/06/16 10:37:16;;;;;;;;;7.00;5.40;;;;;-143.57;100.00;65101.44;5076607;27;46984;-50
2022/06/16 10:40:00;;;;;;;;;8.20;7.40;;;;;-143.57;100.00;65101.44;5094909;27;45481;-53
2022/06/16 10:42:31;;;;;;;;;7.80;7.00;;;;;-143.57;100.00;65101.44;5095003;27;45509;-55
2022/06/16 10:45:10;;;;;;;;;3.80;3.80;;;;;-143.57;100.00;65101.44;5094558;27;45464;-57
2022/06/16 10:47:49;;;;;;;;;5.80;5.80;;;;;-143.57;100.00;65101.44;5094387;27;45920;-58
2022/06/16 10:50:31;;;;;;;;;7.60;7.60;;;;;-143.57;100.00;65101.44;5094850;27;45882;-49
2022/06/16 10:53:01;;;;;;;;;9.80;6.40;;;;;-143.57;100.00;65101.44;5095037;27;45532;-56
2022/06/16 10:55:34;;;;;;;;;6.80;6.80;;;;;-143.57;100.00;65101.44;5095101;27;45544;-55
2022/06/16 10:58:14;;;;;;;;;11.00;7.60;;;;;-143.57;100.00;65101.44;5095152;27;46281;-58
2022/06/16 11:00:39;;;;;;;;;10.80;9.00;;;;;-143.57;100.00;65101.44;5094894;27;45457;-54
2022/06/16 11:03:04;;;;;;;;;8.00;6.50;;;;;-143.57;100.00;65101.44;5094289;27;46433;-49
2022/06/16 11:05:47;;;;;;;;;8.50;5.25;;;;;-143.57;100.00;65101.44;5095176;27;45400;-53
2022/06/16 11:08:14;;;;;;;;;4.60;4.60;;;;;-143.57;100.00;65101.44;5094960;27;45542;-46
2022/06/16 11:10:49;;;;;;;;;6.40;6.40;;;;;-143.57;100.00;65101.44;5094577;27;45433;-57
2022/06/16 11:13:19;;;;;;;;;7.80;6.20;;;;;-143.57;100.00;65101.44;5094975;27;45536;-56
2022/06/16 11:15:49;;;;;;;;;7.40;5.20;;;;;-143.57;100.00;65101.44;5094912;27;45375;-56
2022/06/16 11:18:19;;;;;;;;;8.40;7.20;;;;;-143.57;100.00;65101.44;5094729;27;45393;-56
2022/06/16 11:20:48;;;;;;;;;6.40;5.20;;;;;-143.57;100.00;65101.44;5094639;27;45461;-56
2022/06/16 11:23:22;;;;;;;;;5.80;5.20;;;;;-143.57;100.00;65101.44;5095004;27;45409;-59
2022/06/16 11:26:16;;;;;;;;;6.80;6.20;;;;;-143.57;100.00;65101.44;5095312;27;45472;-47
2022/06/16 11:28:44;;;;;;;;;8.20;7.00;;;;;-143.57;100.00;65101.44;5064581;27;47010;-45